Flight Track Log - Related Links

Times and Time Zones

All times are in EDT time to prevent confusion due to time zone crossing. See the ASQ6151 flight status page for this flight to view local times or setup timezone preferences in your user account.


Time Position Orientation Groundspeed Altitude Reporting Facility
EDT Latitude Longitude Course Direction KTS MPH feet Rate Location/Type
Fri 05:37:54 AM 39.1833 -76.7000 256° West 171 197 1,600  Level Potomac TRACON
Fri 05:39:41 AM 39.1925 -76.8317 275° West 210 242 5,800 2,414 Climbing Washington Center
Fri 05:40:00 AM 39.2000 -77.0625 270° West  Level FlightAware Approximate
Fri 05:40:43 AM 39.2064 -76.9094 283° West 223 257 8,400  Level Washington Center
Fri 05:41:00 AM 39.1695 -77.1775 211° Southwest  Level FlightAware Approximate
Fri 05:41:41 AM 39.2117 -76.9953 275° West 234 269 10,800  Level Washington Center
Fri 05:42:00 AM 39.0796 -77.2474 211° Southwest  Level FlightAware Approximate
Fri 05:42:41 AM 39.2125 -77.0917 271° West 254 292 12,500  Level Washington Center
Fri 05:43:00 AM 38.9978 -77.3277 256° West  Level FlightAware Approximate
Fri 05:43:43 AM 39.1781 -77.1819 244° Southwest 268 308 13,900  Level Washington Center
Fri 05:44:44 AM 39.1083 -77.2447 215° Southwest 287 330 15,000 1,059 Climbing Washington Center
Fri 05:45:42 AM 39.0303 -77.3125 214° Southwest 310 357 16,000 1,026 Climbing Washington Center
Fri 05:46:41 AM 38.9892 -77.4236 245° Southwest 333 383 17,000 950 Climbing Washington Center
Fri 05:47:42 AM 38.9664 -77.5458 257° West 339 390 17,900 800 Climbing Washington Center
Fri 05:48:41 AM 38.9453 -77.6761 258° West 374 430 18,600 787 Climbing Washington Center
Fri 05:49:44 AM 38.9450 -77.8122 270° West 379 436 19,500 992 Climbing Washington Center
Fri 05:50:42 AM 38.9508 -77.9511 273° West 389 448 20,600 1,179 Climbing Washington Center
Fri 05:51:41 AM 38.9544 -78.0767 272° West 389 448 21,800 1,160 Climbing Washington Center
Fri 05:52:41 AM 38.9600 -78.2106 273° West 389 448 22,900 1,100 Climbing Washington Center
Fri 05:53:41 AM 38.9631 -78.3467 272° West 384 442 24,000 1,100 Climbing Washington Center
Fri 05:54:41 AM 38.9683 -78.4803 273° West 384 442 25,100 1,131 Climbing Washington Center
Fri 05:55:43 AM 38.9714 -78.6142 272° West 384 442 26,300 1,122 Climbing Washington Center
Fri 05:56:44 AM 38.9764 -78.7478 273° West 384 442 27,400 1,119 Climbing Washington Center
Fri 05:57:41 AM 38.9789 -78.8814 271° West 384 442 28,500 1,109 Climbing Washington Center
Fri 05:58:43 AM 38.9833 -79.0178 272° West 384 442 29,600 1,140 Climbing Washington Center
Fri 05:59:42 AM 38.9858 -79.1542 271° West 384 442 30,800 1,150 Climbing Washington Center
Fri 06:00:43 AM 38.9900 -79.2933 272° West 384 442 31,900 1,230 Climbing Washington Center
Fri 06:01:44 AM 38.9917 -79.4322 271° West 384 442 33,300 1,160 Climbing Washington Center
Fri 06:02:42 AM 38.9956 -79.5714 272° West 384 442 34,200 900 Climbing Washington Center
Fri 06:03:44 AM 39.0011 -79.7186 273° West 400 460 35,100 885 Climbing Washington Center
Fri 06:04:44 AM 39.0022 -79.8603 271° West 405 466 36,000 458 Climbing Washington Center
Fri 06:05:42 AM 39.0036 -80.0275 271° West 426 490 36,000  Level Indianapolis Center
Fri 06:06:42 AM 39.0056 -80.1589 271° West 443 510 36,000  Level Indianapolis Center
Fri 06:07:43 AM 39.0075 -80.3158 271° West 441 507 36,000  Level Indianapolis Center
Fri 06:08:43 AM 39.0103 -80.4753 271° West 445 512 36,000  Level Indianapolis Center
Fri 06:09:43 AM 39.0197 -80.6322 274° West 447 514 36,000  Level Indianapolis Center
Fri 06:10:43 AM 39.0806 -80.7733 299° West 455 524 36,000  Level Indianapolis Center
Fri 06:11:44 AM 39.1578 -80.9425 301° West 460 529 36,000  Level Indianapolis Center
Fri 06:12:44 AM 39.2214 -81.0819 301° West 455 524 36,000  Level Indianapolis Center
Fri 06:13:44 AM 39.2867 -81.2236 301° West 462 532 36,000  Level Indianapolis Center
Fri 06:14:45 AM 39.3511 -81.3639 301° West 458 527 36,000  Level Indianapolis Center
Fri 06:15:45 AM 39.4142 -81.5050 300° West 457 526 36,000  Level Indianapolis Center
Fri 06:16:45 AM 39.4769 -81.6453 300° West 454 522 36,000  Level Indianapolis Center
Fri 06:17:45 AM 39.5406 -81.7864 300° West 456 525 36,000  Level Indianapolis Center
Fri 06:18:46 AM 39.6033 -81.9267 300° West 453 521 36,000  Level Indianapolis Center
Fri 06:19:46 AM 39.6658 -82.0692 300° West 455 524 36,000  Level Indianapolis Center
Fri 06:20:46 AM 39.7314 -82.2147 300° West 450 518 36,000  Level Indianapolis Center
Fri 06:21:47 AM 39.7933 -82.3569 300° West 449 517 36,000  Level Indianapolis Center
Fri 06:22:47 AM 39.8558 -82.5006 300° West 452 520 36,000  Level Indianapolis Center
Fri 06:23:47 AM 39.9186 -82.6450 300° West 456 525 36,000  Level Indianapolis Center
Fri 06:24:47 AM 39.9819 -82.7886 300° West 454 522 36,000  Level Indianapolis Center
Fri 06:25:48 AM 40.0436 -82.9325 299° West 454 522 36,000  Level Indianapolis Center
Fri 06:26:48 AM 40.1056 -83.0781 299° West 456 525 36,000  Level Indianapolis Center
Fri 06:27:48 AM 40.1683 -83.2222 300° West 456 525 36,000  Level Indianapolis Center
Fri 06:28:49 AM 40.2294 -83.3678 299° West 458 527 36,000  Level Indianapolis Center
Fri 06:29:49 AM 40.2906 -83.5133 299° West 456 525 36,000  Level Indianapolis Center
Fri 06:30:49 AM 40.3522 -83.6589 299° West 456 525 36,000  Level Indianapolis Center
Fri 06:31:49 AM 40.4133 -83.8036 299° West 452 520 36,000 -347 Level Indianapolis Center
Fri 06:32:50 AM 40.4733 -83.9467 299° West 446 513 35,300 -843 Descending Indianapolis Center
Fri 06:33:50 AM 40.5328 -84.0925 298° West 450 518 34,300 -700 Descending Indianapolis Center
Fri 06:34:50 AM 40.5856 -84.2181 299° West 464 534 33,900 -149 Descending Indianapolis Center
Fri 06:35:51 AM 40.6478 -84.3683 299° West 465 535 34,000 50 Climbing Indianapolis Center
Fri 06:36:51 AM 40.7100 -84.5200 298° West 467 537 34,000  Level Indianapolis Center
Fri 06:37:51 AM 40.7731 -84.6747 298° West 472 543 34,000  Level Indianapolis Center
Fri 06:38:52 AM 40.8353 -84.8300 298° West 475 547 34,000  Level Indianapolis Center
Fri 06:39:29 AM 40.8728 -84.9228 298° West 475 547 34,000  Level Chicago Center
Fri 06:40:29 AM 40.9261 -85.0797 294° West 471 542 34,000 -347 Level Chicago Center
Fri 06:41:30 AM 40.9694 -85.2358 290° West 457 526 33,300 -1,140 Descending Chicago Center
Fri 06:42:30 AM 41.0150 -85.3922 291° West 454 522 31,700 -1,587 Descending Chicago Center
Fri 06:43:31 AM 41.0622 -85.5531 291° West 464 534 30,100 -1,835 Descending Chicago Center
Fri 06:44:31 AM 41.1078 -85.7106 291° West 460 529 28,000 -2,150 Descending Chicago Center
Fri 06:45:31 AM 41.1531 -85.8672 291° West 454 522 25,800 -1,488 Descending Chicago Center
Fri 06:46:32 AM 41.1992 -86.0272 291° West 461 531 25,000 -992 Descending Chicago Center
Fri 06:47:32 AM 41.2433 -86.1839 291° West 456 525 23,800 -1,884 Descending Chicago Center
Fri 06:48:33 AM 41.2825 -86.3281 290° West 424 488 21,200 -2,529 Descending Chicago Center
Fri 06:49:33 AM 41.3244 -86.4756 291° West 423 487 18,700 -2,350 Descending Chicago Center
Fri 06:50:33 AM 41.3658 -86.6181 291° West 414 476 16,500 -2,231 Descending Chicago Center
Fri 06:51:34 AM 41.4094 -86.7731 291° West 391 450 14,200 -1,884 Descending Chicago Center
Fri 06:52:34 AM 41.4464 -86.9061 290° West 386 444 12,700 -1,388 Descending Chicago Center
Fri 06:53:35 AM 41.4822 -87.0356 290° West 377 434 11,400 -843 Descending Chicago Center
Fri 06:54:35 AM 41.5194 -87.1614 292° West 368 423 11,000 -198 Descending Chicago Center
Fri 06:55:36 AM 41.5844 -87.2683 309° West 370 426 11,000  Level Chicago Center
Fri 06:56:36 AM 41.6492 -87.3728 310° West 370 426 11,000  Level Chicago Center
Fri 06:57:37 AM 41.7142 -87.4753 310° West 367 422 11,000 -50 Level Chicago Center
Fri 06:58:37 AM 41.7778 -87.5786 310° West 365 420 10,900 -496 Descending Chicago Center
Fri 06:59:38 AM 41.8311 -87.6647 310° West 310 357 10,000 -1,339 Descending Chicago Center
Fri 07:00:38 AM 41.8811 -87.7444 310° West 284 327 8,200 -1,488 Descending Chicago Center
Fri 07:01:39 AM 41.9703 -87.7569 354° North 274 315 7,000 -942 Descending Chicago Center
Fri 07:02:39 AM 42.0314 -87.7369 14° North 247 284 6,300 -1,240 Descending Chicago Center
Fri 07:03:40 AM 42.0850 -87.6908 33° Northeast 231 266 4,500 -1,736 Descending Chicago Center
Fri 07:04:40 AM 42.1211 -87.7503 309° West 226 260 2,800 -992 Descending Chicago Center
Fri 07:05:41 AM 42.0872 -87.7961 225° Southwest 182 209 2,500 -295 Descending Chicago Center

Login

Don't have an account? Register now (free) for customized features, flight alerts, and more!